Time;durP1;ratioP1;P1;durP2;ratioP2;P2;SDS_P1;SDS_P2;PMS_P1;PMS_P2;Temp;Humidity;BMP_temperature;BMP_pressure;BME280_temperature;BME280_humidity;BME280_pressure;Samples;Min_cycle;Max_cycle;Signal;HPM_P1;HPM_P2
2021/08/12 00:01:29;;;;;;;12.67;6.40;;;;;;;12.42;99.04;101737.69;5049105;28;20051;-70
2021/08/12 00:03:54;;;;;;;10.40;6.23;;;;;;;12.40;99.19;101747.72;5048339;28;20366;-70
2021/08/12 00:06:19;;;;;;;8.37;5.70;;;;;;;12.40;99.50;101746.88;5048771;28;20044;-71
2021/08/12 00:08:44;;;;;;;9.70;6.50;;;;;;;12.39;99.08;101738.00;5049364;28;20036;-70
2021/08/12 00:11:10;;;;;;;13.17;6.77;;;;;;;12.41;98.89;101740.56;5031631;28;20029;-71
2021/08/12 00:13:35;;;;;;;9.63;7.13;;;;;;;12.39;98.93;101743.38;5049081;28;20039;-71
2021/08/12 00:16:03;;;;;;;7.03;5.67;;;;;;;12.41;99.16;101740.56;5048886;28;20386;-70
2021/08/12 00:18:29;;;;;;;13.98;8.27;;;;;;;12.39;98.96;101737.19;5048082;28;20033;-70
2021/08/12 00:20:55;;;;;;;8.00;5.80;;;;;;;12.36;98.65;101737.44;5048111;28;20411;-71
2021/08/12 00:23:20;;;;;;;8.40;6.37;;;;;;;12.34;98.89;101736.75;5047729;28;20064;-70
2021/08/12 00:25:46;;;;;;;14.33;7.10;;;;;;;12.33;98.92;101732.41;5048720;28;20421;-70
2021/08/12 00:28:12;;;;;;;15.77;10.15;;;;;;;12.31;98.76;101734.38;5031097;28;20029;-70
2021/08/12 00:30:38;;;;;;;14.25;10.02;;;;;;;12.28;98.57;101729.34;5047986;28;20037;-71
2021/08/12 00:33:04;;;;;;;12.68;8.80;;;;;;;12.25;98.82;101731.31;5030969;28;20040;-71
2021/08/12 00:35:29;;;;;;;15.75;8.00;;;;;;;12.25;98.70;101731.31;5047692;28;20029;-70
2021/08/12 00:37:55;;;;;;;11.98;8.05;;;;;;;12.23;98.88;101733.31;5047630;28;20417;-71
2021/08/12 00:40:22;;;;;;;11.52;7.10;;;;;;;12.21;98.93;101726.41;5047705;28;20568;-70
2021/08/12 00:42:49;;;;;;;10.15;7.38;;;;;;;12.18;98.91;101724.03;5047052;28;20045;-71
2021/08/12 00:45:15;;;;;;;10.45;6.90;;;;;;;12.16;99.30;101720.66;5030551;28;20488;-70
2021/08/12 00:47:41;;;;;;;8.93;6.90;;;;;;;12.14;99.41;101728.84;5047459;28;20033;-70
2021/08/12 00:50:07;;;;;;;10.70;7.47;;;;;;;12.15;99.43;101719.84;5030914;28;20425;-71
2021/08/12 00:52:33;;;;;;;11.77;7.75;;;;;;;12.13;99.65;101721.81;5030972;28;20041;-70
2021/08/12 00:55:04;;;;;;;13.60;8.40;;;;;;;12.10;99.38;101727.44;5047266;28;20079;-71
2021/08/12 00:57:31;;;;;;;12.35;8.50;;;;;;;12.08;99.42;101728.59;5030893;28;20040;-70
2021/08/12 00:59:57;;;;;;;16.45;8.73;;;;;;;12.07;99.46;101727.75;5047268;28;20040;-70
2021/08/12 01:02:23;;;;;;;10.48;8.23;;;;;;;12.03;99.44;101718.31;5047148;28;20533;-71
2021/08/12 01:04:49;;;;;;;10.53;8.47;;;;;;;12.01;99.50;101718.50;5030753;28;20044;-71
2021/08/12 01:07:20;;;;;;;;;;;;;;;11.99;99.35;101717.78;5047283;28;20454;-70
2021/08/12 01:10:00;;;;;;;12.15;8.60;;;;;;;11.95;99.15;101719.06;5047378;28;19928;-71
2021/08/12 01:12:40;;;;;;;14.95;8.43;;;;;;;11.90;98.94;101721.34;5030457;28;20029;-70
2021/08/12 01:15:08;;;;;;;13.40;8.25;;;;;;;11.89;98.92;101718.81;5047119;28;20374;-70
2021/08/12 01:17:45;;;;;;;15.32;9.57;;;;;;;11.89;98.97;101724.16;5030680;28;20513;-71
2021/08/12 01:20:21;;;;;;;16.40;9.35;;;;;;;11.86;99.00;101725.28;5047377;28;20029;-71
2021/08/12 01:22:49;;;;;;;12.55;7.47;;;;;;;11.84;98.88;101722.72;5047001;28;20032;-70
2021/08/12 01:25:26;;;;;;;15.65;8.15;;;;;;;11.83;98.60;101725.56;5047055;28;20413;-70
2021/08/12 01:28:08;;;;;;;15.07;8.35;;;;;;;11.74;98.66;101721.94;5030093;28;20458;-70
2021/08/12 01:30:49;;;;;;;9.82;7.28;;;;;;;11.78;98.83;101727.84;5030716;28;20466;-70
2021/08/12 01:33:46;;;;;;;12.75;8.00;;;;;;;11.74;99.02;101724.63;5046690;28;20043;-70
2021/08/12 01:36:14;;;;;;;9.75;7.72;;;;;;;11.73;99.23;101716.72;5046475;28;20074;-70
2021/08/12 01:38:40;;;;;;;10.60;7.50;;;;;;;11.74;99.24;101721.09;5047862;28;20020;-70
2021/08/12 01:41:08;;;;;;;10.60;7.15;;;;;;;11.71;99.20;101719.56;5030481;28;20028;-70
2021/08/12 01:43:34;;;;;;;10.18;7.85;;;;;;;11.70;99.30;101717.88;5046702;28;20075;-71
2021/08/12 01:46:05;;;;;;;11.90;8.30;;;;;;;11.70;99.33;101714.34;5046660;28;20033;-70
2021/08/12 01:48:32;;;;;;;15.02;9.80;;;;;;;11.70;99.55;101715.19;5046702;28;20037;-71
2021/08/12 01:50:59;;;;;;;14.02;8.65;;;;;;;11.73;99.92;101719.41;5030490;28;20052;-70
2021/08/12 01:53:24;;;;;;;10.88;7.93;;;;;;;11.70;99.51;101717.03;5048050;28;20025;-70
2021/08/12 01:55:51;;;;;;;15.20;10.10;;;;;;;11.78;100.00;101722.50;5029792;28;20083;-70
2021/08/12 01:58:20;;;;;;;12.40;8.02;;;;;;;11.68;100.00;101710.97;5047117;28;20075;-70
2021/08/12 02:00:47;;;;;;;11.50;8.18;;;;;;;11.66;99.59;101715.63;5046737;28;20063;-70
2021/08/12 02:03:15;;;;;;;17.33;8.82;;;;;;;11.67;99.97;101715.50;5046939;28;20067;-71
2021/08/12 02:05:43;;;;;;;10.75;7.10;;;;;;;11.63;99.86;101714.09;5047556;28;20036;-70
2021/08/12 02:08:10;;;;;;;13.20;8.05;;;;;;;11.58;99.44;101709.16;5046794;28;20036;-70
2021/08/12 02:10:35;;;;;;;11.13;7.38;;;;;;;11.56;99.40;101707.63;5049749;28;20389;-70
2021/08/12 02:13:02;;;;;;;12.88;8.35;;;;;;;11.60;99.61;101709.03;5050823;28;20120;-70
2021/08/12 02:15:27;;;;;;;14.13;7.32;;;;;;;11.65;99.98;101712.13;5033790;28;20618;-71
2021/08/12 02:17:53;;;;;;;14.70;8.93;;;;;;;11.60;99.72;101714.38;5050343;28;20512;-71
2021/08/12 02:20:19;;;;;;;10.63;6.70;;;;;;;11.58;99.71;101725.22;5050708;28;20025;-71
2021/08/12 02:22:57;;;;;;;15.65;8.57;;;;;;;11.57;99.67;101714.69;5033912;28;20378;-71
2021/08/12 02:25:41;;;;;;;17.65;10.18;;;;;;;11.59;100.00;101716.22;5050528;28;20029;-70
2021/08/12 02:28:09;;;;;;;10.77;7.38;;;;;;;11.56;99.83;101710.31;5033536;28;20044;-71
2021/08/12 02:30:39;;;;;;;15.23;9.68;;;;;;;11.57;100.00;101714.69;5050367;28;20089;-71
2021/08/12 02:33:08;;;;;;;15.23;9.63;;;;;;;11.57;100.00;101712.00;5050149;28;20037;-70
2021/08/12 02:35:37;;;;;;;11.95;8.27;;;;;;;11.54;100.00;101709.59;5050055;28;20033;-70
2021/08/12 02:38:04;;;;;;;13.82;9.40;;;;;;;11.46;99.92;101704.16;5049794;28;20048;-71
2021/08/12 02:40:30;;;;;;;11.68;8.65;;;;;;;11.45;99.89;101703.31;5051169;28;20051;-71
2021/08/12 02:42:57;;;;;;;15.90;8.70;;;;;;;11.44;99.76;101700.78;5049054;28;20048;-71
2021/08/12 02:45:24;;;;;;;12.48;8.43;;;;;;;11.43;100.00;101702.63;5049985;28;20052;-70
2021/08/12 02:47:53;;;;;;;14.25;9.65;;;;;;;11.47;100.00;101708.50;5049579;28;20049;-70
2021/08/12 02:50:19;;;;;;;19.92;11.40;;;;;;;11.40;99.93;101695.72;5051032;28;20409;-70
2021/08/12 02:52:45;;;;;;;15.15;10.43;;;;;;;11.51;100.00;101707.22;5050052;28;20037;-71
2021/08/12 02:55:12;;;;;;;14.35;9.27;;;;;;;11.44;100.00;101706.13;5049687;28;20098;-71
2021/08/12 02:57:37;;;;;;;;;;;;;;;11.50;100.00;101711.75;5050259;28;20554;-71
2021/08/12 03:00:05;;;;;;;14.07;9.48;;;;;;;11.44;100.00;101714.16;5050606;28;19957;-70
2021/08/12 03:02:36;;;;;;;18.05;9.68;;;;;;;11.39;100.00;101706.56;5049649;28;20041;-70
2021/08/12 03:05:02;;;;;;;17.30;10.50;;;;;;;11.38;100.00;101716.41;5049560;28;20440;-70
2021/08/12 03:07:31;;;;;;;17.73;9.55;;;;;;;11.39;100.00;101712.75;5050615;28;20442;-71
2021/08/12 03:09:59;;;;;;;21.63;11.43;;;;;;;11.40;99.81;101709.09;5049512;28;20500;-70
2021/08/12 03:12:24;;;;;;;21.25;11.68;;;;;;;11.41;99.83;101709.94;5049635;28;20035;-70
2021/08/12 03:14:52;;;;;;;14.73;9.75;;;;;;;11.39;99.69;101709.25;5049134;28;20081;-70
2021/08/12 03:17:19;;;;;;;14.95;9.98;;;;;;;11.33;99.58;101697.31;5049395;28;20099;-70
2021/08/12 03:19:45;;;;;;;22.52;12.13;;;;;;;11.36;99.54;101705.03;5049374;28;20124;-70
2021/08/12 03:22:13;;;;;;;15.85;10.25;;;;;;;11.35;99.68;101706.00;5048036;28;20485;-70
2021/08/12 03:24:42;;;;;;;15.13;9.95;;;;;;;11.36;99.42;101712.22;5031366;28;20079;-70
2021/08/12 03:27:11;;;;;;;15.38;9.85;;;;;;;11.34;99.70;101708.84;5047274;28;20059;-70
2021/08/12 03:29:37;;;;;;;15.23;9.35;;;;;;;11.34;99.63;101708.84;5047431;28;20016;-70
2021/08/12 03:32:03;;;;;;;16.88;10.27;;;;;;;11.35;99.55;101707.84;5047288;28;20040;-70
2021/08/12 03:34:29;;;;;;;14.43;9.70;;;;;;;11.39;99.71;101710.06;5048471;28;20094;-71
2021/08/12 03:36:54;;;;;;;18.33;11.50;;;;;;;11.48;100.00;101716.41;5047307;28;20113;-71
2021/08/12 03:39:21;;;;;;;16.40;11.50;;;;;;;11.60;100.00;101722.41;5048316;28;20036;-70
2021/08/12 03:41:46;;;;;;;;;;;;;;;11.59;100.00;101720.75;5048421;28;20117;-71
2021/08/12 03:44:12;;;;;;;;;;;;;;;11.59;100.00;101723.41;5047995;28;19917;-70
2021/08/12 03:46:38;;;;;;;;;;;;;;;11.63;100.00;101727.47;5049650;28;19971;-71
2021/08/12 03:49:03;;;;;;;20.10;10.67;;;;;;;11.62;100.00;101723.13;5049443;28;20258;-71
2021/08/12 03:51:30;;;;;;;16.40;10.45;;;;;;;11.63;99.66;101716.75;5048648;28;20074;-70
2021/08/12 03:53:56;;;;;;;;;;;;;;;11.62;99.92;101720.44;5032266;28;20079;-70
2021/08/12 03:56:21;;;;;;;;;;;;;;;11.71;99.96;101716.06;5032106;28;20384;-71
2021/08/12 03:58:47;;;;;;;15.97;10.93;;;;;;;11.78;100.00;101711.81;5048211;28;20516;-70
2021/08/12 04:01:13;;;;;;;20.55;11.57;;;;;;;11.75;100.00;101725.44;5032231;28;20033;-71
2021/08/12 04:03:38;;;;;;;16.43;10.43;;;;;;;11.77;100.00;101718.13;5048194;28;20055;-70
2021/08/12 04:06:03;;;;;;;21.37;10.23;;;;;;;11.78;100.00;101717.16;5030909;28;20454;-71
2021/08/12 04:08:31;;;;;;;23.77;13.17;;;;;;;11.82;100.00;101719.38;5031305;28;20029;-70
2021/08/12 04:10:56;;;;;;;21.38;12.30;;;;;;;11.87;100.00;101716.31;5048487;28;20051;-71
2021/08/12 04:13:22;;;;;;;15.90;10.23;;;;;;;11.89;99.89;101726.84;5047622;28;20029;-71
2021/08/12 04:15:47;;;;;;;21.75;12.88;;;;;;;11.88;99.74;101720.66;5047548;28;20804;-70
2021/08/12 04:18:13;;;;;;;16.83;11.13;;;;;;;11.89;99.65;101722.31;5047737;28;20132;-70
2021/08/12 04:20:38;;;;;;;17.23;10.43;;;;;;;11.91;99.64;101728.38;5048617;28;20040;-71
2021/08/12 04:23:03;;;;;;;16.83;10.83;;;;;;;11.95;99.48;101734.28;5048125;28;20474;-71
2021/08/12 04:25:29;;;;;;;18.63;10.47;;;;;;;12.03;99.41;101742.41;5048579;28;20394;-71
2021/08/12 04:27:54;;;;;;;21.27;11.40;;;;;;;12.11;99.61;101739.03;5047725;28;20051;-70
2021/08/12 04:30:21;;;;;;;18.87;11.33;;;;;;;12.15;99.27;101741.25;5048750;28;20031;-71
2021/08/12 04:32:46;;;;;;;14.77;10.25;;;;;;;12.18;99.57;101730.22;5047611;28;20112;-70
2021/08/12 04:35:13;;;;;;;14.77;9.65;;;;;;;12.25;99.23;101731.31;5047780;28;20032;-71
2021/08/12 04:37:44;;;;;;;16.30;10.85;;;;;;;12.26;98.63;101732.16;5047484;28;20466;-70
2021/08/12 04:40:12;;;;;;;14.65;9.20;;;;;;;12.33;98.63;101727.88;5047820;28;20041;-71
2021/08/12 04:42:37;;;;;;;15.40;10.35;;;;;;;12.38;98.47;101722.09;5048431;28;20033;-71
2021/08/12 04:45:03;;;;;;;14.03;10.30;;;;;;;12.49;98.56;101727.22;5047594;28;20047;-71
2021/08/12 04:47:29;;;;;;;14.07;9.10;;;;;;;12.59;98.63;101728.00;5030682;28;20059;-71
2021/08/12 04:49:54;;;;;;;20.00;11.48;;;;;;;12.69;98.63;101733.31;5030897;28;20120;-71
2021/08/12 04:52:20;;;;;;;28.13;16.10;;;;;;;12.77;98.37;101724.50;5047354;28;20450;-71
2021/08/12 04:54:46;;;;;;;28.20;18.83;;;;;;;12.87;98.53;101727.94;5047505;28;20041;-71
2021/08/12 04:57:11;;;;;;;30.70;20.47;;;;;;;13.03;98.07;101725.41;5047229;28;20135;-71
2021/08/12 04:59:37;;;;;;;22.38;15.23;;;;;;;13.23;98.53;101728.75;5047475;28;20131;-71
2021/08/12 05:02:03;;;;;;;23.90;13.77;;;;;;;13.48;98.93;101735.16;5047462;28;20068;-70
2021/08/12 05:04:28;;;;;;;16.13;11.10;;;;;;;13.65;98.75;101727.19;5046961;28;20036;-71
2021/08/12 05:06:53;;;;;;;17.77;12.07;;;;;;;13.83;98.93;101727.13;5047147;28;20291;-71
2021/08/12 05:09:19;;;;;;;15.93;11.95;;;;;;;14.07;99.66;101740.69;5047077;28;20068;-71
2021/08/12 05:11:46;;;;;;;24.58;11.82;;;;;;;14.31;99.66;101731.88;5047203;28;20037;-71
2021/08/12 05:14:12;;;;;;;20.23;13.00;;;;;;;14.67;99.31;101734.34;5046971;28;20033;-71
2021/08/12 05:16:37;;;;;;;18.17;11.23;;;;;;;15.34;98.54;101733.38;5047034;28;20394;-71
2021/08/12 05:19:04;;;;;;;17.43;10.33;;;;;;;16.13;95.67;101733.50;5047007;28;20090;-71
2021/08/12 05:21:29;;;;;;;16.98;9.43;;;;;;;16.73;89.22;101732.84;5047232;28;20078;-71
2021/08/12 05:23:54;;;;;;;15.30;10.07;;;;;;;16.17;85.86;101729.47;5047027;28;20041;-71
2021/08/12 05:26:20;;;;;;;11.03;7.90;;;;;;;16.30;88.72;101729.75;5047842;28;20040;-71
2021/08/12 05:28:45;;;;;;;15.97;8.77;;;;;;;16.95;84.45;101725.81;5047174;28;20021;-71
2021/08/12 05:31:15;;;;;;;12.40;8.68;;;;;;;17.45;82.08;101726.22;5046835;28;20366;-71
2021/08/12 05:33:41;;;;;;;13.02;7.45;;;;;;;17.90;78.84;101724.41;5030359;28;20029;-71
2021/08/12 05:36:06;;;;;;;13.03;9.67;;;;;;;17.15;80.28;101734.25;5046552;28;20082;-71
2021/08/12 05:38:31;;;;;;;14.97;7.97;;;;;;;16.80;81.45;101730.31;5048203;28;20033;-71
2021/08/12 05:40:57;;;;;;;12.87;9.20;;;;;;;16.95;83.42;101725.81;5046980;28;20041;-71
2021/08/12 05:43:24;;;;;;;12.95;8.73;;;;;;;18.12;78.85;101725.28;5046092;28;20025;-71
2021/08/12 05:45:50;;;;;;;13.68;8.48;;;;;;;18.54;77.24;101724.56;5049924;28;20041;-71
2021/08/12 05:48:16;;;;;;;9.65;7.15;;;;;;;19.10;73.58;101720.34;5051036;28;20033;-71
2021/08/12 05:50:44;;;;;;;9.43;7.60;;;;;;;19.37;72.63;101715.97;5050848;28;20830;-71
2021/08/12 05:53:11;;;;;;;11.52;8.82;;;;;;;18.76;74.58;101719.16;5050910;28;20060;-71
2021/08/12 05:55:37;;;;;;;12.25;7.63;;;;;;;19.23;72.17;101717.75;5050528;28;20094;-71
2021/08/12 05:58:02;;;;;;;9.30;7.77;;;;;;;19.21;74.16;101714.41;5050582;28;20458;-71
2021/08/12 06:00:28;;;;;;;13.65;7.55;;;;;;;19.33;72.38;101720.94;5051037;28;20045;-70
2021/08/12 06:02:53;;;;;;;10.00;7.47;;;;;;;19.66;71.28;101708.66;5033875;28;20032;-71
2021/08/12 06:05:26;;;;;;;11.30;6.25;;;;;;;20.46;69.96;101718.00;5050676;28;20102;-71
2021/08/12 06:07:51;;;;;;;10.97;7.70;;;;;;;20.53;68.43;101702.56;5050335;28;20409;-71
2021/08/12 06:10:19;;;;;;;7.23;5.83;;;;;;;20.91;66.50;101707.47;5033969;28;20048;-71
2021/08/12 06:12:45;;;;;;;10.50;7.20;;;;;;;19.99;69.07;101711.56;5033517;28;20060;-71
2021/08/12 06:15:11;;;;;;;11.03;7.00;;;;;;;18.80;72.94;101715.09;5050439;28;20060;-71
2021/08/12 06:17:37;;;;;;;;;;;;;;;18.54;75.04;101719.16;5050530;28;20029;-71
2021/08/12 06:20:03;;;;;;;8.85;6.82;;;;;;;18.54;75.54;101715.59;5050540;28;20034;-71
2021/08/12 06:22:28;;;;;;;11.32;7.43;;;;;;;18.96;74.51;101717.53;5050225;28;20045;-71
2021/08/12 06:24:54;;;;;;;7.77;6.20;;;;;;;19.46;71.22;101711.25;5050300;28;20042;-71
2021/08/12 06:27:19;;;;;;;9.20;5.60;;;;;;;20.15;70.77;101722.06;5049944;28;20068;-71
2021/08/12 06:29:44;;;;;;;10.60;6.07;;;;;;;18.98;71.68;101709.19;5033333;28;20033;-71
2021/08/12 06:32:11;;;;;;;8.60;5.97;;;;;;;19.02;72.50;101712.38;5050303;28;20103;-71
2021/08/12 06:34:36;;;;;;;;;;;;;;;19.13;72.93;101712.66;5033728;28;20379;-71
2021/08/12 06:37:01;;;;;;;;;;;;;;;19.65;72.59;101715.13;5050409;28;19974;-71
2021/08/12 06:39:27;;;;;;;7.40;4.77;;;;;;;20.32;70.10;101716.28;5033476;28;20448;-71
2021/08/12 06:41:54;;;;;;;8.20;5.35;;;;;;;21.14;66.32;101717.94;5032779;28;20370;-71
2021/08/12 06:44:24;;;;;;;8.25;5.30;;;;;;;21.53;65.57;101713.53;5049922;28;20347;-71
2021/08/12 06:46:50;;;;;;;8.30;5.97;;;;;;;21.01;65.96;101705.19;5033322;28;20033;-71
2021/08/12 06:49:16;;;;;;;7.25;6.05;;;;;;;20.60;65.94;101711.63;5033208;28;20029;-71
2021/08/12 06:51:44;;;;;;;9.65;5.15;;;;;;;20.66;66.13;101712.66;5050773;28;20496;-71
2021/08/12 06:54:09;;;;;;;8.33;5.07;;;;;;;20.92;65.43;101709.13;5049619;28;20036;-71
2021/08/12 06:56:36;;;;;;;8.63;5.22;;;;;;;21.78;62.86;101705.53;5049269;28;20520;-71
2021/08/12 06:59:02;;;;;;;7.32;4.50;;;;;;;21.78;62.63;101705.53;5033215;28;20029;-71
2021/08/12 07:01:28;;;;;;;10.32;5.80;;;;;;;21.80;61.48;101706.16;5049442;28;20378;-71
2021/08/12 07:03:55;;;;;;;13.45;6.63;;;;;;;20.96;63.14;101712.28;5049691;28;20119;-71
2021/08/12 07:06:21;;;;;;;;;;;;;;;20.95;65.53;101721.47;5049558;28;20086;-71
2021/08/12 07:08:47;;;;;;;13.60;7.95;;;;;;;20.38;66.67;101726.34;5049385;28;19921;-71
2021/08/12 07:11:13;;;;;;;12.75;8.27;;;;;;;20.82;65.74;101717.69;5049188;28;20039;-71
2021/08/12 07:13:40;;;;;;;17.88;11.63;;;;;;;21.31;63.80;101725.66;5049563;28;20365;-72
2021/08/12 07:16:06;;;;;;;20.98;12.75;;;;;;;20.45;66.92;101722.59;5032370;28;20037;-72
2021/08/12 07:18:33;;;;;;;19.35;12.15;;;;;;;20.81;65.79;101716.03;5032905;28;20017;-71
2021/08/12 07:20:59;;;;;;;20.17;12.35;;;;;;;21.76;63.81;101701.34;5032744;28;20110;-71
2021/08/12 07:23:27;;;;;;;21.30;13.05;;;;;;;21.49;65.30;101704.13;5048925;28;20144;-71
2021/08/12 07:25:52;;;;;;;19.55;12.50;;;;;;;21.43;63.75;101697.66;5032512;28;20441;-71
2021/08/12 07:28:19;;;;;;;21.13;12.45;;;;;;;21.92;62.14;101698.16;5048964;28;20053;-71
2021/08/12 07:30:44;;;;;;;18.17;12.97;;;;;;;21.79;62.40;101692.78;5049194;28;20406;-72
2021/08/12 07:33:10;;;;;;;15.98;11.13;;;;;;;22.17;60.46;101695.53;5032477;28;20384;-71
2021/08/12 07:35:36;;;;;;;17.27;9.50;;;;;;;21.95;62.01;101696.91;5049976;28;20224;-72
2021/08/12 07:38:01;;;;;;;16.10;9.03;;;;;;;21.97;61.92;101694.81;5048483;28;20119;-71
2021/08/12 07:40:27;;;;;;;12.40;7.72;;;;;;;22.00;60.83;101694.38;5049934;28;20025;-71
2021/08/12 07:42:52;;;;;;;11.23;7.57;;;;;;;22.16;60.96;101696.59;5048028;28;20118;-71
2021/08/12 07:45:18;;;;;;;8.18;6.60;;;;;;;22.02;62.00;101695.00;5032160;28;20071;-71
2021/08/12 07:47:43;;;;;;;10.43;7.13;;;;;;;21.52;62.17;101705.56;5048560;28;20127;-70
2021/08/12 07:50:11;;;;;;;12.30;6.07;;;;;;;22.58;59.75;101710.63;5049620;28;20110;-71
2021/08/12 07:52:42;;;;;;;8.70;5.88;;;;;;;23.27;57.65;101714.34;5049649;28;20036;-71
2021/08/12 07:55:09;;;;;;;6.55;5.47;;;;;;;22.78;57.78;101715.94;5048296;28;20048;-71
2021/08/12 07:57:35;;;;;;;15.10;5.10;;;;;;;22.70;58.55;101714.31;5048442;28;20021;-71
2021/08/12 08:00:00;;;;;;;7.78;5.00;;;;;;;22.73;58.32;101713.03;5049426;28;20112;-71
2021/08/12 08:02:25;;;;;;;7.37;5.10;;;;;;;22.52;58.22;101709.63;5049342;28;20029;-70
2021/08/12 08:04:51;;;;;;;9.17;5.70;;;;;;;22.67;57.71;101709.31;5049170;28;20044;-71
2021/08/12 08:07:16;;;;;;;7.60;5.93;;;;;;;23.23;57.67;101706.81;5048675;28;20037;-71
2021/08/12 08:09:41;;;;;;;8.47;5.83;;;;;;;23.55;56.32;101711.13;5049090;28;20052;-71
2021/08/12 08:12:07;;;;;;;9.23;6.13;;;;;;;23.23;56.51;101704.94;5049239;28;20037;-71
2021/08/12 08:14:32;;;;;;;7.55;6.13;;;;;;;23.24;56.13;101708.47;5048192;28;20028;-71
2021/08/12 08:16:57;;;;;;;7.73;6.00;;;;;;;22.63;58.01;101708.06;5047916;28;20041;-71
2021/08/12 08:19:23;;;;;;;15.53;6.40;;;;;;;22.70;57.37;101710.75;5049229;28;20037;-71
2021/08/12 08:21:48;;;;;;;10.63;5.97;;;;;;;23.05;55.32;101708.44;5048860;28;20070;-70
2021/08/12 08:24:13;;;;;;;8.53;5.83;;;;;;;23.32;54.67;101710.91;5031456;28;20041;-71
2021/08/12 08:26:39;;;;;;;9.77;5.60;;;;;;;22.91;56.53;101704.94;5048788;28;20173;-71
2021/08/12 08:29:05;;;;;;;9.73;5.32;;;;;;;22.42;56.51;101708.41;5049042;28;20033;-71
2021/08/12 08:31:31;;;;;;;7.53;5.70;;;;;;;22.62;55.43;101709.16;5048619;28;20443;-70
2021/08/12 08:33:58;;;;;;;10.40;5.37;;;;;;;23.08;55.45;101705.25;5048050;28;20352;-71
2021/08/12 08:36:25;;;;;;;11.70;5.07;;;;;;;23.47;53.65;101713.28;5048401;28;20024;-70
2021/08/12 08:38:51;;;;;;;8.25;4.63;;;;;;;23.72;53.59;101711.34;5048879;28;20056;-71
2021/08/12 08:41:17;;;;;;;8.52;4.60;;;;;;;23.66;54.89;101714.97;5047660;28;20508;-71
2021/08/12 08:43:44;;;;;;;7.15;4.63;;;;;;;23.43;52.75;101704.72;5049181;28;20053;-71
2021/08/12 08:46:10;;;;;;;8.90;4.75;;;;;;;23.74;52.70;101716.59;5048423;28;20044;-71
2021/08/12 08:48:39;;;;;;;5.97;4.38;;;;;;;23.56;53.17;101709.22;5030723;28;20431;-71
2021/08/12 08:51:06;;;;;;;6.03;4.00;;;;;;;24.46;52.33;101702.25;5047819;28;20505;-70
2021/08/12 08:53:32;;;;;;;10.35;5.28;;;;;;;24.22;51.38;101711.19;5030736;28;20033;-72
2021/08/12 08:55:57;;;;;;;;;;;;;;;24.35;51.33;101710.19;5048565;28;20897;-71
2021/08/12 08:58:23;;;;;;;6.28;4.13;;;;;;;24.80;51.67;101696.09;5048387;28;19928;-71
2021/08/12 09:00:51;;;;;;;7.78;4.97;;;;;;;24.28;50.33;101706.72;5047560;28;20032;-71
2021/08/12 09:03:16;;;;;;;5.53;3.90;;;;;;;23.95;52.23;101705.25;5048272;28;20375;-71
2021/08/12 09:05:43;;;;;;;5.43;3.92;;;;;;;24.13;53.12;101706.28;5047337;28;20044;-71
2021/08/12 09:08:08;;;;;;;6.25;3.97;;;;;;;24.45;51.22;101690.53;5048069;28;20031;-71
2021/08/12 09:10:34;;;;;;;5.38;4.88;;;;;;;24.62;51.29;101693.44;5047443;28;20037;-71
2021/08/12 09:12:59;;;;;;;6.10;4.63;;;;;;;24.37;48.97;101693.56;5047385;28;20055;-71
2021/08/12 09:15:25;;;;;;;6.05;3.70;;;;;;;24.52;50.43;101695.91;5048121;28;20029;-71
2021/08/12 09:17:52;;;;;;;6.57;3.90;;;;;;;24.22;50.79;101696.72;5048006;28;20041;-71
2021/08/12 09:20:19;;;;;;;6.18;4.25;;;;;;;24.40;49.91;101695.84;5047501;28;20454;-71
2021/08/12 09:22:54;;;;;;;5.82;4.20;;;;;;;24.33;49.89;101687.75;5048230;28;20362;-71
2021/08/12 09:25:44;;;;;;;6.22;4.35;;;;;;;25.41;49.06;101688.56;5048067;28;20065;-71
2021/08/12 09:28:21;;;;;;;8.85;4.53;;;;;;;25.94;46.48;101689.44;5047191;28;20175;-71
2021/08/12 09:30:58;;;;;;;4.75;4.20;;;;;;;25.01;48.18;101696.63;5047098;28;20100;-71
2021/08/12 09:33:26;;;;;;;7.25;4.90;;;;;;;24.47;48.03;101688.44;5048051;28;20056;-71
2021/08/12 09:35:53;;;;;;;5.88;3.97;;;;;;;24.49;49.36;101677.25;5047583;28;20060;-71
2021/08/12 09:38:18;;;;;;;6.03;3.65;;;;;;;25.23;48.77;101684.06;5047202;28;20120;-71
2021/08/12 09:40:51;;;;;;;5.47;4.10;;;;;;;24.88;47.49;101683.16;5048144;28;20135;-71
2021/08/12 09:43:17;;;;;;;8.25;4.28;;;;;;;24.29;48.65;101678.34;5047480;28;20115;-70
2021/08/12 09:45:44;;;;;;;7.60;4.68;;;;;;;25.57;46.66;101686.19;5047406;28;20028;-71
2021/08/12 09:48:16;;;;;;;5.55;3.75;;;;;;;25.69;47.40;101682.34;5047016;28;20094;-71
2021/08/12 09:50:43;;;;;;;9.27;4.85;;;;;;;25.45;46.70;101672.50;5048033;28;20033;-71
2021/08/12 09:53:17;;;;;;;7.25;4.20;;;;;;;26.08;46.34;101684.53;5047889;28;20463;-71
2021/08/12 09:55:42;;;;;;;8.45;4.88;;;;;;;25.50;45.69;101678.09;5046967;28;20033;-71
2021/08/12 09:58:09;;;;;;;7.05;4.90;;;;;;;25.30;45.79;101681.19;5046720;28;20056;-71
2021/08/12 10:00:46;;;;;;;5.95;4.80;;;;;;;26.02;44.72;101675.41;5048058;28;20029;-71
2021/08/12 10:03:21;;;;;;;6.20;4.35;;;;;;;26.86;43.93;101674.75;5046719;28;20037;-71
2021/08/12 10:05:47;;;;;;;7.10;5.32;;;;;;;26.29;43.92;101669.31;5046661;28;20033;-71
2021/08/12 10:08:25;;;;;;;6.10;4.75;;;;;;;26.55;43.77;101673.41;5047579;28;20697;-71
2021/08/12 10:10:50;;;;;;;5.30;4.65;;;;;;;26.37;44.11;101671.69;5047913;28;20036;-71
2021/08/12 10:13:16;;;;;;;6.07;4.20;;;;;;;26.93;43.43;101672.66;5047621;28;20068;-71
2021/08/12 10:15:48;;;;;;;11.50;6.37;;;;;;;26.74;41.97;101671.25;5046800;28;20295;-71
2021/08/12 10:18:18;;;;;;;7.60;6.00;;;;;;;27.07;42.24;101667.69;5046756;28;20044;-71
2021/08/12 10:20:44;;;;;;;6.60;4.57;;;;;;;27.74;41.64;101679.59;5047881;28;20086;-71
2021/08/12 10:23:10;;;;;;;;;;;;;;;26.79;43.60;101674.09;5046953;28;20025;-71
2021/08/12 10:25:36;;;;;;;7.07;6.28;;;;;;;25.88;43.57;101665.81;5047767;28;19913;-71
2021/08/12 10:28:03;;;;;;;9.40;5.93;;;;;;;26.31;44.36;101675.38;5029942;28;20044;-71
2021/08/12 10:30:29;;;;;;;8.70;6.00;;;;;;;26.75;44.39;101670.16;5047973;28;20120;-71
2021/08/12 10:33:01;;;;;;;9.02;5.07;;;;;;;27.21;43.81;101679.16;5050574;28;20037;-71
2021/08/12 10:35:32;;;;;;;10.63;5.40;;;;;;;26.74;43.89;101665.78;5051084;28;20040;-71
2021/08/12 10:37:59;;;;;;;8.73;5.07;;;;;;;27.07;43.55;101669.59;5050496;28;20139;-71
2021/08/12 10:40:30;;;;;;;7.05;6.00;;;;;;;27.32;42.54;101664.53;5050189;28;20021;-71
2021/08/12 10:42:57;;;;;;;8.52;6.20;;;;;;;26.47;44.12;101669.13;5050899;28;20101;-71
2021/08/12 10:45:24;;;;;;;13.40;5.75;;;;;;;26.43;44.16;101661.63;5049846;28;20045;-71
2021/08/12 10:47:54;;;;;;;7.22;5.57;;;;;;;25.96;44.90;101659.94;5050981;28;20107;-71
2021/08/12 10:50:31;;;;;;;6.90;5.82;;;;;;;25.54;45.13;101654.66;5049937;28;20036;-71
2021/08/12 10:53:11;;;;;;;11.02;6.22;;;;;;;26.05;45.24;101661.22;5051040;28;20036;-71
2021/08/12 10:55:40;;;;;;;8.27;4.90;;;;;;;26.62;44.05;101656.78;5050787;28;20430;-71
2021/08/12 10:58:17;;;;;;;6.10;5.50;;;;;;;26.42;45.39;101662.72;5050641;28;20040;-71
2021/08/12 11:01:04;;;;;;;8.55;5.70;;;;;;;26.59;44.03;101662.78;5050762;28;20060;-71
2021/08/12 11:03:32;;;;;;;6.85;5.90;;;;;;;26.38;45.51;101662.38;5050753;28;20078;-71
2021/08/12 11:06:07;;;;;;;5.93;5.28;;;;;;;27.29;46.27;101661.44;5049305;28;20064;-71
2021/08/12 11:09:00;;;;;;;7.40;5.32;;;;;;;27.67;43.51;101666.06;5049647;28;20033;-71
2021/08/12 11:11:25;;;;;;;7.70;5.47;;;;;;;27.48;43.12;101659.22;5049657;28;20472;-71
2021/08/12 11:13:52;;;;;;;8.63;5.13;;;;;;;28.01;41.62;101652.25;5050823;28;20021;-71
2021/08/12 11:16:18;;;;;;;6.85;5.15;;;;;;;27.07;43.60;101648.50;5050212;28;20036;-71
2021/08/12 11:18:51;;;;;;;12.43;5.50;;;;;;;26.64;43.62;101650.00;5050428;28;20033;-71
2021/08/12 11:21:29;;;;;;;7.43;5.53;;;;;;;27.06;43.05;101655.03;5050497;28;20095;-71
2021/08/12 11:23:55;;;;;;;7.07;5.25;;;;;;;26.74;43.79;101646.63;5050368;28;20043;-71